Portada
METAR-TAF:

METAR-TAF

Aeroports :

Castres, França

latitud: 43-33-25N, longitud: 2-17-21E, altitud: 239 m

Observació

L'informe es va fer fa 23 minuts, a les 20:00 UTC
Vent 2 kt del Nord/Nord-Est
Temperatura 4°C
Humitat 87%
Pressió 1030 hPa
Visibilitat: 8000 m

METAR: LFCK 102000Z AUTO 03002KT 8000 NSC 04/02 Q1030 NOSIG

Hora: 21:23 (20:23 UTC)

Pronòstic

L'informe es va fer fa 3 hores i 23 minuts, a les 17:00 UTC
Pronòstic vàlid del 10 a les 18 UTC al 11 a les 03 UTC
Vent 2 kt amb direcció variable
Visibilitat 10 km o més
Cel ennuvolat a una alçada de 4500 ft

TAF: LFCK 101700Z 1018/1103 VRB02KT 9999 BKN045

Observacions i pronòstics meteorològics de més de 4000 aeroports (METAR i TAF).

Les estacions disponibles són els punts grocs i vermells al mapa.

Posi el ratolí al punt desitjat per veure el nom de l'estació.

Feu clic per veure les observacions i els pronòstics meteorològics.

Per canviar el mapa: feu clic els botons verds amb una creu de color negre per apropar; al botó verd amb un guió per allunyar la imatge; o en les fletxes verdes per a mapes adjacents.


METAR-TAF: